Time;durP1;ratioP1;P1;durP2;ratioP2;P2;SDS_P1;SDS_P2;PMS_P1;PMS_P2;Temp;Humidity;BMP_temperature;BMP_pressure;BME280_temperature;BME280_humidity;BME280_pressure;Samples;Min_cycle;Max_cycle;Signal;HPM_P1;HPM_P2
2022/06/03 00:00:23;;;;;;;5.95;4.40;;;;;;;;;;10421685;28;20059;-72
2022/06/03 00:05:26;;;;;;;4.47;3.45;;;;;;;;;;10448120;28;20031;-71
2022/06/03 00:10:51;;;;;;;17.83;3.97;;;;;;;;;;10448447;28;20591;-72
2022/06/03 00:15:58;;;;;;;8.90;4.47;;;;;;;;;;10447880;28;20029;-74
2022/06/03 00:21:03;;;;;;;7.25;4.05;;;;;;;;;;10431856;28;20021;-70
2022/06/03 00:26:06;;;;;;;7.03;4.10;;;;;;;;;;10447822;28;20040;-70
2022/06/03 00:31:24;;;;;;;14.07;4.65;;;;;;;;;;10447422;28;20457;-71
2022/06/03 00:36:33;;;;;;;9.73;4.63;;;;;;;;;;10447768;28;20083;-72
2022/06/03 00:41:37;;;;;;;13.43;5.28;;;;;;;;;;10405883;28;20503;-74
2022/06/03 00:46:37;;;;;;;7.70;4.63;;;;;;;;;;10424700;28;20460;-74
2022/06/03 00:51:41;;;;;;;16.25;4.57;;;;;;;;;;10448027;28;20066;-73
2022/06/03 00:56:41;;;;;;;11.23;5.28;;;;;;;;;;10446657;28;20404;-71
2022/06/03 01:02:01;;;;;;;10.48;4.82;;;;;;;;;;10446118;28;20021;-72
2022/06/03 01:07:25;;;;;;;12.82;5.25;;;;;;;;;;10446675;28;20147;-73
2022/06/03 01:12:25;;;;;;;9.70;5.50;;;;;;;;;;10444375;28;20040;-72
2022/06/03 01:17:37;;;;;;;16.10;4.97;;;;;;;;;;10444163;28;20032;-72
2022/06/03 01:22:56;;;;;;;7.80;5.50;;;;;;;;;;10444182;28;20071;-72
2022/06/03 01:28:14;;;;;;;12.80;5.45;;;;;;;;;;10443461;28;20023;-70
2022/06/03 01:33:14;;;;;;;9.73;5.40;;;;;;;;;;10443408;28;20017;-75
2022/06/03 01:38:18;;;;;;;7.87;5.90;;;;;;;;;;10444166;28;20017;-72
2022/06/03 01:43:22;;;;;;;10.25;5.15;;;;;;;;;;10444617;28;20299;-71
2022/06/03 01:48:41;;;;;;;10.75;5.55;;;;;;;;;;10443516;28;20032;-76
2022/06/03 01:53:44;;;;;;;7.22;5.40;;;;;;;;;;10443300;28;20041;-72
2022/06/03 01:59:23;;;;;;;11.13;5.30;;;;;;;;;;10444806;28;20074;-73
2022/06/03 02:04:36;;;;;;;15.32;6.38;;;;;;;;;;10333952;28;20616;-74
2022/06/03 02:09:55;;;;;;;9.10;5.85;;;;;;;;;;10420190;28;20028;-72
2022/06/03 02:15:14;;;;;;;12.90;5.05;;;;;;;;;;10444033;28;20033;-71
2022/06/03 02:20:34;;;;;;;9.55;6.68;;;;;;;;;;10445153;28;20017;-74
2022/06/03 02:25:37;;;;;;;10.93;5.82;;;;;;;;;;10443459;28;20029;-72
2022/06/03 02:30:41;;;;;;;12.70;5.90;;;;;;;;;;10443325;28;20021;-72
2022/06/03 02:35:48;;;;;;;16.35;6.45;;;;;;;;;;10443426;28;20523;-76
2022/06/03 02:41:07;;;;;;;10.30;6.07;;;;;;;;;;10554022;22;20049;-77
2022/06/03 02:46:34;;;;;;;9.48;5.63;;;;;;;;;;10452885;28;20510;-75
2022/06/03 02:51:56;;;;;;;11.55;6.45;;;;;;;;;;10451179;28;20456;-75
2022/06/03 02:57:09;;;;;;;10.52;6.40;;;;;;;;;;10578536;22;20081;-74
2022/06/03 03:02:28;;;;;;;11.20;6.50;;;;;;;;;;10433772;28;20497;-75
2022/06/03 03:07:37;;;;;;;13.00;6.65;;;;;;;;;;10409604;28;20489;-72
2022/06/03 03:12:55;;;;;;;17.55;7.60;;;;;;;;;;10409280;28;20026;-72
2022/06/03 03:17:55;;;;;;;;;;;;;;;;;;10450436;28;20103;-72
2022/06/03 03:23:11;;;;;;;19.30;7.50;;;;;;;;;;10428977;28;19905;-72
2022/06/03 03:28:34;;;;;;;18.98;8.20;;;;;;;;;;10409116;28;20025;-73
2022/06/03 03:33:40;;;;;;;16.88;8.27;;;;;;;;;;10408085;28;20029;-71
2022/06/03 03:38:43;;;;;;;16.52;7.95;;;;;;;;;;10408255;28;20526;-76
2022/06/03 03:43:59;;;;;;;11.73;7.22;;;;;;;;;;10416835;28;20087;-71
2022/06/03 03:48:59;;;;;;;16.67;7.43;;;;;;;;;;10435890;28;20064;-71
2022/06/03 03:54:18;;;;;;;14.27;7.68;;;;;;;;;;10439320;28;20057;-72
2022/06/03 03:59:31;;;;;;;11.90;7.80;;;;;;;;;;10447146;28;20029;-73
2022/06/03 04:04:34;;;;;;;23.58;8.90;;;;;;;;;;10445162;28;20032;-72
2022/06/03 04:09:34;;;;;;;15.13;8.43;;;;;;;;;;10438422;28;20040;-73
2022/06/03 04:14:58;;;;;;;20.23;9.05;;;;;;;;;;10442780;28;20029;-73
2022/06/03 04:20:33;;;;;;;22.73;10.93;;;;;;;;;;10378850;28;20060;-73
2022/06/03 04:25:52;;;;;;;14.00;8.77;;;;;;;;;;10376235;28;20091;-72
2022/06/03 04:30:53;;;;;;;20.90;8.23;;;;;;;;;;10443277;28;20066;-75
2022/06/03 04:36:12;;;;;;;30.55;7.60;;;;;;;;;;10439892;28;20079;-72
2022/06/03 04:41:12;;;;;;;19.58;6.72;;;;;;;;;;10402907;28;20028;-73
2022/06/03 04:46:12;;;;;;;14.02;5.95;;;;;;;;;;10413159;28;20513;-74
2022/06/03 04:51:33;;;;;;;11.20;5.60;;;;;;;;;;10437368;28;20629;-71
2022/06/03 04:56:33;;;;;;;22.17;6.57;;;;;;;;;;10404523;28;20468;-71
2022/06/03 05:01:38;;;;;;;14.63;6.25;;;;;;;;;;10430818;28;20138;-72
2022/06/03 05:06:50;;;;;;;17.05;6.70;;;;;;;;;;10442418;28;20354;-71
2022/06/03 05:12:00;;;;;;;11.02;5.53;;;;;;;;;;10401514;28;20503;-71
2022/06/03 05:17:03;;;;;;;12.32;5.75;;;;;;;;;;10401375;28;20018;-74
2022/06/03 05:22:04;;;;;;;12.02;5.50;;;;;;;;;;10401256;28;20415;-70
2022/06/03 05:27:23;;;;;;;17.80;6.93;;;;;;;;;;10403650;28;20033;-72
2022/06/03 05:32:41;;;;;;;12.77;6.18;;;;;;;;;;10440147;28;20498;-74
2022/06/03 05:37:51;;;;;;;20.05;8.85;;;;;;;;;;10429391;28;20460;-76
2022/06/03 05:42:54;;;;;;;12.68;6.00;;;;;;;;;;10403041;28;20503;-72
2022/06/03 05:48:06;;;;;;;14.73;6.00;;;;;;;;;;10402981;28;20021;-71
2022/06/03 05:53:07;;;;;;;18.70;6.47;;;;;;;;;;10460067;28;20438;-71
2022/06/03 05:58:10;;;;;;;9.63;5.10;;;;;;;;;;10443565;28;20049;-70
2022/06/03 06:03:13;;;;;;;16.02;5.32;;;;;;;;;;10443714;28;20029;-70
2022/06/03 06:08:13;;;;;;;13.80;4.95;;;;;;;;;;10443631;28;20447;-70
2022/06/03 06:13:30;;;;;;;13.50;5.55;;;;;;;;;;10443013;28;20490;-71
2022/06/03 06:18:42;;;;;;;11.98;4.43;;;;;;;;;;10405424;28;20017;-70
2022/06/03 06:24:01;;;;;;;17.90;4.63;;;;;;;;;;10401687;28;20022;-70
2022/06/03 06:29:17;;;;;;;13.23;4.28;;;;;;;;;;10431543;28;20021;-70
2022/06/03 06:34:47;;;;;;;8.25;3.88;;;;;;;;;;10444723;28;20029;-74
2022/06/03 06:39:55;;;;;;;6.63;4.00;;;;;;;;;;10442787;28;20017;-71
2022/06/03 06:45:22;;;;;;;8.93;4.10;;;;;;;;;;10409909;28;20072;-70
2022/06/03 06:50:26;;;;;;;11.80;3.33;;;;;;;;;;10386795;28;20053;-71
2022/06/03 06:55:32;;;;;;;9.43;4.80;;;;;;;;;;10401405;28;20308;-72
2022/06/03 07:00:37;;;;;;;5.13;3.40;;;;;;;;;;10402599;28;20092;-71
2022/06/03 07:05:50;;;;;;;13.05;3.28;;;;;;;;;;10430537;28;20100;-72
2022/06/03 07:10:53;;;;;;;6.32;2.60;;;;;;;;;;10425663;28;20336;-72
2022/06/03 07:16:00;;;;;;;5.82;2.50;;;;;;;;;;10404524;28;20068;-74
2022/06/03 07:21:09;;;;;;;11.45;3.50;;;;;;;;;;10400971;28;20517;-70
2022/06/03 07:26:21;;;;;;;8.85;2.92;;;;;;;;;;10405679;28;20177;-71
2022/06/03 07:31:27;;;;;;;10.95;3.38;;;;;;;;;;10408497;28;20027;-71
2022/06/03 07:36:39;;;;;;;9.52;2.83;;;;;;;;;;10408014;28;20072;-69
2022/06/03 07:41:43;;;;;;;15.45;5.13;;;;;;;;;;10442810;28;20039;-70
2022/06/03 07:46:52;;;;;;;3.78;2.30;;;;;;;;;;10415469;28;20022;-70
2022/06/03 07:51:56;;;;;;;4.47;2.33;;;;;;;;;;10423688;28;20105;-70
2022/06/03 07:57:01;;;;;;;6.65;2.38;;;;;;;;;;10407439;28;20132;-72
2022/06/03 08:02:15;;;;;;;9.60;3.28;;;;;;;;;;10407204;28;20017;-71
2022/06/03 08:12:39;;;;;;;7.07;2.38;;;;;;;;;;10408456;28;20059;-71
2022/06/03 08:17:40;;;;;;;6.55;2.13;;;;;;;;;;10408043;28;20108;-71
2022/06/03 08:22:41;;;;;;;9.45;2.70;;;;;;;;;;10406052;28;20022;-74
2022/06/03 08:27:42;;;;;;;8.63;2.67;;;;;;;;;;10406420;28;20025;-68
2022/06/03 08:32:45;;;;;;;7.03;2.20;;;;;;;;;;10407198;28;20037;-71
2022/06/03 08:37:49;;;;;;;5.57;2.65;;;;;;;;;;10404369;28;20120;-70
2022/06/03 08:42:59;;;;;;;8.35;2.28;;;;;;;;;;10406703;28;20032;-71
2022/06/03 08:48:03;;;;;;;5.93;2.20;;;;;;;;;;10410480;28;20017;-73
2022/06/03 08:53:11;;;;;;;7.90;3.22;;;;;;;;;;10446322;28;20045;-74
2022/06/03 08:58:20;;;;;;;7.47;2.67;;;;;;;;;;10435344;28;20033;-71
2022/06/03 09:03:22;;;;;;;7.80;3.20;;;;;;;;;;10406192;28;20040;-73
2022/06/03 09:08:32;;;;;;;6.97;2.95;;;;;;;;;;10423518;28;20037;-73
2022/06/03 09:13:51;;;;;;;9.32;3.42;;;;;;;;;;10430335;28;20032;-70
2022/06/03 09:18:51;;;;;;;7.65;3.08;;;;;;;;;;10404390;28;20021;-73
2022/06/03 09:24:11;;;;;;;10.45;3.05;;;;;;;;;;10431769;28;20017;-71
2022/06/03 09:29:13;;;;;;;9.05;2.65;;;;;;;;;;10441361;28;20104;-71
2022/06/03 09:34:14;;;;;;;8.38;3.38;;;;;;;;;;10403595;28;20094;-70
2022/06/03 09:39:16;;;;;;;6.88;3.00;;;;;;;;;;10403408;28;20075;-71
2022/06/03 09:44:19;;;;;;;4.40;2.45;;;;;;;;;;10402795;28;20021;-75
2022/06/03 09:49:19;;;;;;;6.47;2.58;;;;;;;;;;10402824;28;20084;-75
2022/06/03 09:54:22;;;;;;;4.53;2.20;;;;;;;;;;10437662;28;20601;-71
2022/06/03 09:59:23;;;;;;;7.25;2.42;;;;;;;;;;10435744;28;20023;-72
2022/06/03 10:04:24;;;;;;;5.55;1.80;;;;;;;;;;10404269;28;20094;-70
2022/06/03 10:14:44;;;;;;;4.28;1.50;;;;;;;;;;10433069;28;20029;-70
2022/06/03 10:19:44;;;;;;;10.43;2.50;;;;;;;;;;10402236;28;20021;-71
2022/06/03 10:24:44;;;;;;;10.00;1.95;;;;;;;;;;10403581;28;20033;-69
2022/06/03 10:29:46;;;;;;;7.78;2.08;;;;;;;;;;10401827;28;20017;-71
2022/06/03 10:34:47;;;;;;;8.77;2.33;;;;;;;;;;10406457;28;20033;-74
2022/06/03 10:39:48;;;;;;;5.20;2.10;;;;;;;;;;10420628;28;20453;-71
2022/06/03 10:44:50;;;;;;;3.05;2.00;;;;;;;;;;10401497;28;20284;-71
2022/06/03 10:49:57;;;;;;;8.05;1.75;;;;;;;;;;10401587;28;20511;-71
2022/06/03 11:05:37;;;;;;;6.28;3.03;;;;;;;;;;10411205;28;20065;-69
2022/06/03 11:10:41;;;;;;;4.13;2.78;;;;;;;;;;10409234;28;20767;-72
2022/06/03 11:15:43;;;;;;;8.60;3.90;;;;;;;;;;10409037;28;20056;-71
2022/06/03 11:20:45;;;;;;;6.38;2.22;;;;;;;;;;10433951;28;20459;-70
2022/06/03 11:25:47;;;;;;;7.53;2.90;;;;;;;;;;10449439;28;20029;-73
2022/06/03 11:31:06;;;;;;;6.28;3.30;;;;;;;;;;10419147;28;20052;-68
2022/06/03 11:36:09;;;;;;;8.02;3.22;;;;;;;;;;10408203;28;20028;-72
2022/06/03 11:41:16;;;;;;;8.88;3.15;;;;;;;;;;10409480;28;20018;-75
2022/06/03 11:46:21;;;;;;;7.20;3.10;;;;;;;;;;10422843;28;20491;-72
2022/06/03 11:51:21;;;;;;;6.07;2.95;;;;;;;;;;10412583;28;20410;-75
2022/06/03 11:56:26;;;;;;;10.13;3.20;;;;;;;;;;10407357;28;20055;-71
2022/06/03 12:01:44;;;;;;;9.02;3.50;;;;;;;;;;10408044;28;20080;-69
2022/06/03 12:06:49;;;;;;;9.45;3.50;;;;;;;;;;10406997;28;20025;-71
2022/06/03 12:17:26;;;;;;;6.40;3.35;;;;;;;;;;10421081;28;20025;-71
2022/06/03 12:22:29;;;;;;;6.88;3.35;;;;;;;;;;10451944;28;20059;-71
2022/06/03 12:27:33;;;;;;;8.40;3.38;;;;;;;;;;10458538;28;20067;-72
2022/06/03 12:32:36;;;;;;;6.30;2.85;;;;;;;;;;10455848;28;20132;-71
2022/06/03 12:37:36;;;;;;;7.28;2.97;;;;;;;;;;10459103;28;20025;-71
2022/06/03 12:42:38;;;;;;;7.05;2.80;;;;;;;;;;10437037;28;20024;-75
2022/06/03 12:47:43;;;;;;;5.72;3.30;;;;;;;;;;10458694;28;20049;-69
2022/06/03 12:52:44;;;;;;;3.40;2.63;;;;;;;;;;10458282;28;20037;-70
2022/06/03 12:58:08;;;;;;;5.20;3.00;;;;;;;;;;10450593;28;20574;-74
2022/06/03 13:03:24;;;;;;;4.80;3.50;;;;;;;;;;10449993;28;20090;-73
2022/06/03 13:08:27;;;;;;;9.73;3.53;;;;;;;;;;10476036;28;20081;-71
2022/06/03 13:13:28;;;;;;;10.93;3.47;;;;;;;;;;10454384;28;20032;-73
2022/06/03 13:18:36;;;;;;;6.63;3.25;;;;;;;;;;10456757;28;20029;-75
2022/06/03 13:23:53;;;;;;;6.20;3.00;;;;;;;;;;10453348;28;20119;-71
2022/06/03 13:28:53;;;;;;;7.07;2.50;;;;;;;;;;10457669;28;20040;-70
2022/06/03 13:34:01;;;;;;;6.13;3.30;;;;;;;;;;10447040;28;20355;-70
2022/06/03 13:39:02;;;;;;;6.32;3.05;;;;;;;;;;10439009;28;20283;-70
2022/06/03 13:44:04;;;;;;;7.57;3.10;;;;;;;;;;10435682;28;20078;-73
2022/06/03 13:49:14;;;;;;;4.90;3.00;;;;;;;;;;10450825;28;20059;-65
2022/06/03 13:54:15;;;;;;;5.13;2.83;;;;;;;;;;10451268;28;20149;-69
2022/06/03 13:59:16;;;;;;;9.03;3.83;;;;;;;;;;10452667;28;20025;-71
2022/06/03 14:04:16;;;;;;;7.68;3.83;;;;;;;;;;10453678;28;20117;-71
2022/06/03 14:09:16;;;;;;;8.95;3.97;;;;;;;;;;10458264;28;20028;-71
2022/06/03 14:14:17;;;;;;;4.85;3.85;;;;;;;;;;10455668;28;20098;-71
2022/06/03 14:19:17;;;;;;;8.23;3.72;;;;;;;;;;10449950;28;20028;-69
2022/06/03 14:24:31;;;;;;;6.90;4.35;;;;;;;;;;10455874;28;20083;-70
2022/06/03 14:29:38;;;;;;;10.00;3.78;;;;;;;;;;10452772;28;20085;-69
2022/06/03 14:34:39;;;;;;;7.40;3.33;;;;;;;;;;10452575;28;20021;-69
2022/06/03 14:39:40;;;;;;;4.78;3.55;;;;;;;;;;10474647;28;20027;-69
2022/06/03 14:44:41;;;;;;;8.88;4.70;;;;;;;;;;10435352;28;20404;-70
2022/06/03 14:49:47;;;;;;;5.20;3.55;;;;;;;;;;10434881;28;20035;-72
2022/06/03 14:54:54;;;;;;;6.15;3.75;;;;;;;;;;10449399;28;20573;-70
2022/06/03 14:59:57;;;;;;;12.37;4.20;;;;;;;;;;10393051;28;20491;-70
2022/06/03 15:05:01;;;;;;;6.95;3.47;;;;;;;;;;10408843;28;20036;-74
2022/06/03 15:10:05;;;;;;;4.03;3.17;;;;;;;;;;10422796;28;20029;-70
2022/06/03 15:15:05;;;;;;;4.80;3.58;;;;;;;;;;10451744;28;20025;-70
2022/06/03 15:20:08;;;;;;;7.22;3.80;;;;;;;;;;10411428;28;20107;-70
2022/06/03 15:25:16;;;;;;;6.75;3.30;;;;;;;;;;10408371;28;20094;-69
2022/06/03 15:30:24;;;;;;;11.18;4.03;;;;;;;;;;10408291;28;20411;-73
2022/06/03 15:35:28;;;;;;;9.98;4.18;;;;;;;;;;10407839;28;20459;-71
2022/06/03 15:40:33;;;;;;;12.32;4.43;;;;;;;;;;10447689;28;20043;-72
2022/06/03 15:45:39;;;;;;;5.72;3.78;;;;;;;;;;10434762;28;20025;-71
2022/06/03 15:50:43;;;;;;;10.75;4.25;;;;;;;;;;10407624;28;20036;-71
2022/06/03 15:55:51;;;;;;;8.73;4.20;;;;;;;;;;10406967;28;20061;-71
2022/06/03 16:01:10;;;;;;;14.27;4.00;;;;;;;;;;10408091;28;20025;-70
2022/06/03 16:06:14;;;;;;;7.95;4.18;;;;;;;;;;10408408;28;20030;-70
2022/06/03 16:11:19;;;;;;;7.05;4.75;;;;;;;;;;10434624;28;20454;-70
2022/06/03 16:16:29;;;;;;;8.30;4.45;;;;;;;;;;10442114;28;20017;-72
2022/06/03 16:21:33;;;;;;;9.50;4.65;;;;;;;;;;10406125;28;20021;-72
2022/06/03 16:26:37;;;;;;;11.07;5.72;;;;;;;;;;10406371;28;20112;-72
2022/06/03 16:31:44;;;;;;;9.52;5.30;;;;;;;;;;10405729;28;20025;-69
2022/06/03 16:36:56;;;;;;;10.82;5.85;;;;;;;;;;10407239;28;20025;-72
2022/06/03 16:42:17;;;;;;;11.52;5.05;;;;;;;;;;10437935;28;20021;-71
2022/06/03 16:47:27;;;;;;;11.18;5.15;;;;;;;;;;10429578;28;20043;-74
2022/06/03 16:52:33;;;;;;;11.10;5.88;;;;;;;;;;10445749;28;20029;-72
2022/06/03 16:57:35;;;;;;;13.57;5.73;;;;;;;;;;10440584;28;20041;-75
2022/06/03 17:02:36;;;;;;;10.68;5.13;;;;;;;;;;10404924;28;20272;-72
2022/06/03 17:07:38;;;;;;;14.82;6.10;;;;;;;;;;10429192;28;20021;-72
2022/06/03 17:12:38;;;;;;;9.85;4.90;;;;;;;;;;10459529;28;20032;-71
2022/06/03 17:17:39;;;;;;;6.87;4.57;;;;;;;;;;10458622;28;20020;-76
2022/06/03 17:22:39;;;;;;;8.30;5.00;;;;;;;;;;10449918;28;20307;-70
2022/06/03 17:27:52;;;;;;;7.85;4.80;;;;;;;;;;10453577;28;20123;-70
2022/06/03 17:33:08;;;;;;;8.90;5.18;;;;;;;;;;10451477;28;20024;-70
2022/06/03 17:38:20;;;;;;;19.67;6.07;;;;;;;;;;10453446;28;20016;-69
2022/06/03 17:43:23;;;;;;;14.65;5.50;;;;;;;;;;10443411;28;20028;-69
2022/06/03 17:48:27;;;;;;;9.25;5.30;;;;;;;;;;10455077;28;20074;-72
2022/06/03 17:59:10;;;;;;;13.30;5.45;;;;;;;;;;10454873;28;20036;-72
2022/06/03 18:04:10;;;;;;;11.75;5.47;;;;;;;;;;10454297;28;20479;-76
2022/06/03 18:09:13;;;;;;;10.38;6.07;;;;;;;;;;10452869;28;20024;-74
2022/06/03 18:14:19;;;;;;;27.50;6.90;;;;;;;;;;10452185;28;20028;-71
2022/06/03 18:19:31;;;;;;;10.88;5.63;;;;;;;;;;10448745;28;20033;-70
2022/06/03 18:24:32;;;;;;;11.93;6.65;;;;;;;;;;10453591;28;20044;-72
2022/06/03 18:29:47;;;;;;;18.55;7.43;;;;;;;;;;10450267;28;20040;-72
2022/06/03 18:35:22;;;;;;;12.27;7.13;;;;;;;;;;10467943;28;20060;-74
2022/06/03 18:40:23;;;;;;;12.98;6.20;;;;;;;;;;10342341;28;20055;-72
2022/06/03 18:45:23;;;;;;;8.23;5.72;;;;;;;;;;10446382;28;20025;-71
2022/06/03 18:50:26;;;;;;;14.43;7.00;;;;;;;;;;10459033;28;20045;-71
2022/06/03 18:55:32;;;;;;;9.40;6.43;;;;;;;;;;10452382;28;20484;-77
2022/06/03 19:00:34;;;;;;;9.70;6.93;;;;;;;;;;10451534;28;20029;-69
2022/06/03 19:05:45;;;;;;;11.75;7.07;;;;;;;;;;10449270;28;20033;-71
2022/06/03 19:10:54;;;;;;;10.15;6.85;;;;;;;;;;10445741;28;20064;-77
2022/06/03 19:16:13;;;;;;;12.73;7.60;;;;;;;;;;10450229;28;20117;-72
2022/06/03 19:21:13;;;;;;;16.23;7.45;;;;;;;;;;10451544;28;20048;-71
2022/06/03 19:26:15;;;;;;;10.63;6.45;;;;;;;;;;10456053;28;20521;-71
2022/06/03 19:31:17;;;;;;;10.85;6.35;;;;;;;;;;10455503;28;20119;-71
2022/06/03 19:36:50;;;;;;;24.10;14.80;;;;;;;;;;10457338;28;20067;-71
2022/06/03 19:42:23;;;;;;;10.80;6.90;;;;;;;;;;10413487;28;20114;-71
2022/06/03 19:47:23;;;;;;;13.00;7.43;;;;;;;;;;10405467;28;20436;-72
2022/06/03 19:52:26;;;;;;;13.88;7.47;;;;;;;;;;10458314;28;20028;-73
2022/06/03 19:57:27;;;;;;;14.80;7.50;;;;;;;;;;10458895;28;20052;-72
2022/06/03 20:02:36;;;;;;;19.27;7.60;;;;;;;;;;10460075;28;20364;-71
2022/06/03 20:07:55;;;;;;;11.73;6.25;;;;;;;;;;10457372;28;20039;-71
2022/06/03 20:18:22;;;;;;;10.50;6.57;;;;;;;;;;10454179;28;20017;-72
2022/06/03 20:23:25;;;;;;;12.52;5.93;;;;;;;;;;10438769;28;20108;-69
2022/06/03 20:28:31;;;;;;;10.55;6.30;;;;;;;;;;10449142;28;20020;-71
2022/06/03 20:33:42;;;;;;;15.27;7.10;;;;;;;;;;10452813;28;20027;-72
2022/06/03 20:38:47;;;;;;;13.75;7.57;;;;;;;;;;10434515;28;20802;-70
2022/06/03 20:43:56;;;;;;;11.13;6.57;;;;;;;;;;10444643;28;20090;-71
2022/06/03 20:49:03;;;;;;;12.07;6.75;;;;;;;;;;10473195;28;20060;-70
2022/06/03 20:54:14;;;;;;;14.18;7.60;;;;;;;;;;10461526;28;20095;-71
2022/06/03 20:59:17;;;;;;;14.43;7.63;;;;;;;;;;10466436;28;20021;-70
2022/06/03 21:14:56;;;;;;;12.10;6.63;;;;;;;;;;10460215;28;20029;-70
2022/06/03 21:19:58;;;;;;;8.93;7.07;;;;;;;;;;10472427;28;20028;-73
2022/06/03 21:25:02;;;;;;;8.73;5.97;;;;;;;;;;10453657;28;20272;-70
2022/06/03 21:30:03;;;;;;;13.98;5.97;;;;;;;;;;10452374;28;20076;-74
2022/06/03 21:35:19;;;;;;;10.32;7.00;;;;;;;;;;10457546;28;20041;-70
2022/06/03 21:40:23;;;;;;;16.73;7.43;;;;;;;;;;10456380;28;20021;-71
2022/06/03 21:45:27;;;;;;;9.15;6.63;;;;;;;;;;10441110;28;20505;-71
2022/06/03 21:50:33;;;;;;;9.25;6.55;;;;;;;;;;10457337;28;20115;-68
2022/06/03 21:55:46;;;;;;;12.23;5.85;;;;;;;;;;10452055;28;20052;-70
2022/06/03 22:00:48;;;;;;;10.98;6.63;;;;;;;;;;10455953;28;20402;-71
2022/06/03 22:05:49;;;;;;;16.10;6.75;;;;;;;;;;10445997;28;20029;-71
2022/06/03 22:10:50;;;;;;;13.48;6.13;;;;;;;;;;10450476;28;20028;-73
2022/06/03 22:15:50;;;;;;;10.00;5.80;;;;;;;;;;10440606;28;20017;-71
2022/06/03 22:20:51;;;;;;;7.90;5.97;;;;;;;;;;10442695;28;20009;-71
2022/06/03 22:25:51;;;;;;;10.60;6.35;;;;;;;;;;10443870;28;20610;-71
2022/06/03 22:30:53;;;;;;;11.48;5.75;;;;;;;;;;10442289;28;20017;-71
2022/06/03 22:36:09;;;;;;;11.23;6.47;;;;;;;;;;10441910;28;20103;-72
2022/06/03 22:41:09;;;;;;;11.15;6.93;;;;;;;;;;10443429;28;20110;-72
2022/06/03 22:46:10;;;;;;;9.88;6.60;;;;;;;;;;10441719;28;20116;-72
2022/06/03 22:51:10;;;;;;;8.97;5.90;;;;;;;;;;10442199;28;20152;-73
2022/06/03 22:56:10;;;;;;;13.75;5.90;;;;;;;;;;10444962;28;20045;-71
2022/06/03 23:01:11;;;;;;;10.48;6.10;;;;;;;;;;10432971;28;20013;-70
2022/06/03 23:06:12;;;;;;;9.68;6.10;;;;;;;;;;10449987;28;20016;-71
2022/06/03 23:11:13;;;;;;;9.48;6.00;;;;;;;;;;10449489;28;20499;-73
2022/06/03 23:16:14;;;;;;;13.73;6.55;;;;;;;;;;10449257;28;20021;-70
2022/06/03 23:21:16;;;;;;;8.75;6.00;;;;;;;;;;10449045;28;20104;-70
2022/06/03 23:26:21;;;;;;;10.98;6.82;;;;;;;;;;10448929;28;22003;-71
2022/06/03 23:31:23;;;;;;;11.68;6.35;;;;;;;;;;10448789;28;20017;-71
2022/06/03 23:36:24;;;;;;;10.35;6.78;;;;;;;;;;10448221;28;20028;-74
2022/06/03 23:46:43;;;;;;;13.95;6.78;;;;;;;;;;10449507;28;20021;-73
2022/06/03 23:51:44;;;;;;;12.83;7.47;;;;;;;;;;10448245;28;20016;-74
2022/06/03 23:56:44;;;;;;;10.70;7.47;;;;;;;;;;10447570;28;20037;-70
